Weather at Copenhagen Kastrup Airport

Public forecast

Using degrees Celsius for public forecast. Weather courtesy of forecast.io.

Current aviation weather report (METAR) for Copenhagen Kastrup Airport

Retrieved 2021/04/20 21:20 UTC (37 minutes ago):

EKCH 202120Z AUTO 26003KT 9999 NCD 07/02 Q1014 NOSIG

Aviation forecast (TAF) for Copenhagen Kastrup Airport

Retrieved 2021/04/20 18:31 UTC (3 hours ago):

TAF EKCH 201658Z 2018/2118 01008KT CAVOK BECMG 2104/2106 31012KT BKN006 BECMG 2106/2109 SCT030 TEMPO 2110/2118 29015G25KT -SHRA BKN030TCU